sensor_id;sensor_type;location;lat;lon;timestamp;pressure;altitude;pressure_sealevel;temperature;humidity
82619;BME280;72286;12.138;-68.936;2023-09-12T00:03:29;100889.46;;;29.71;73.15
82619;BME280;72286;12.138;-68.936;2023-09-12T00:07:05;100900.55;;;29.74;72.74
82619;BME280;72286;12.138;-68.936;2023-09-12T00:10:44;100900.29;;;29.71;72.82
82619;BME280;72286;12.138;-68.936;2023-09-12T00:14:21;100904.84;;;29.78;72.92
82619;BME280;72286;12.138;-68.936;2023-09-12T00:17:59;100913.86;;;29.69;73.29
82619;BME280;72286;12.138;-68.936;2023-09-12T00:21:36;100910.67;;;29.74;72.75
82619;BME280;72286;12.138;-68.936;2023-09-12T00:25:15;100921.08;;;29.67;72.74
82619;BME280;72286;12.138;-68.936;2023-09-12T00:28:52;100932.66;;;29.65;73.32
82619;BME280;72286;12.138;-68.936;2023-09-12T00:32:30;100945.89;;;29.69;72.95
82619;BME280;72286;12.138;-68.936;2023-09-12T00:36:07;100954.17;;;29.74;72.49
82619;BME280;72286;12.138;-68.936;2023-09-12T00:39:45;100954.58;;;29.74;72.85
82619;BME280;72286;12.138;-68.936;2023-09-12T00:43:23;100964.45;;;29.69;72.97
82619;BME280;72286;12.138;-68.936;2023-09-12T00:47:02;100970.79;;;29.65;72.71
82619;BME280;72286;12.138;-68.936;2023-09-12T00:50:59;100976.14;;;29.67;72.70
82619;BME280;72286;12.138;-68.936;2023-09-12T00:54:18;100975.88;;;29.79;72.31
82619;BME280;72286;12.138;-68.936;2023-09-12T00:57:55;100975.57;;;29.74;72.53
82619;BME280;72286;12.138;-68.936;2023-09-12T01:01:33;100983.45;;;29.66;73.27
82619;BME280;72286;12.138;-68.936;2023-09-12T01:05:13;100991.67;;;29.65;73.35
82619;BME280;72286;12.138;-68.936;2023-09-12T01:08:51;100999.89;;;29.63;73.11
82619;BME280;72286;12.138;-68.936;2023-09-12T01:12:29;101008.85;;;29.66;73.15
82619;BME280;72286;12.138;-68.936;2023-09-12T01:16:06;101020.33;;;29.62;73.49
82619;BME280;72286;12.138;-68.936;2023-09-12T01:19:43;101023.73;;;29.59;73.96
82619;BME280;72286;12.138;-68.936;2023-09-12T01:23:47;101039.52;;;29.61;74.19
82619;BME280;72286;12.138;-68.936;2023-09-12T01:27:40;101051.79;;;29.57;74.18
82619;BME280;72286;12.138;-68.936;2023-09-12T01:31:19;101055.56;;;29.59;73.99
82619;BME280;72286;12.138;-68.936;2023-09-12T01:34:56;101068.61;;;29.67;73.78
82619;BME280;72286;12.138;-68.936;2023-09-12T01:38:34;101081.91;;;29.71;73.72
82619;BME280;72286;12.138;-68.936;2023-09-12T01:42:17;101085.21;;;29.70;73.55
82619;BME280;72286;12.138;-68.936;2023-09-12T01:45:58;101083.95;;;29.74;73.47
82619;BME280;72286;12.138;-68.936;2023-09-12T01:49:35;101086.12;;;29.65;74.03
82619;BME280;72286;12.138;-68.936;2023-09-12T01:53:15;101093.05;;;29.62;74.37
82619;BME280;72286;12.138;-68.936;2023-09-12T01:56:54;101101.39;;;29.58;74.90
82619;BME280;72286;12.138;-68.936;2023-09-12T02:00:35;101107.99;;;29.66;74.33
82619;BME280;72286;12.138;-68.936;2023-09-12T02:04:12;101117.86;;;29.64;74.59
82619;BME280;72286;12.138;-68.936;2023-09-12T02:07:50;101128.42;;;29.54;75.04
82619;BME280;72286;12.138;-68.936;2023-09-12T02:11:27;101132.73;;;29.54;74.92
82619;BME280;72286;12.138;-68.936;2023-09-12T02:15:06;101135.48;;;29.55;75.00
82619;BME280;72286;12.138;-68.936;2023-09-12T02:18:43;101143.32;;;29.54;74.87
82619;BME280;72286;12.138;-68.936;2023-09-12T02:22:21;101139.79;;;29.53;74.97
82619;BME280;72286;12.138;-68.936;2023-09-12T02:25:59;101137.38;;;29.52;74.77
82619;BME280;72286;12.138;-68.936;2023-09-12T02:29:39;101140.61;;;29.56;74.88
82619;BME280;72286;12.138;-68.936;2023-09-12T02:33:15;101140.02;;;29.53;75.17
82619;BME280;72286;12.138;-68.936;2023-09-12T02:36:54;101138.17;;;29.53;75.17
82619;BME280;72286;12.138;-68.936;2023-09-12T02:40:31;101137.38;;;29.54;75.03
82619;BME280;72286;12.138;-68.936;2023-09-12T02:44:09;101142.00;;;29.57;74.90
82619;BME280;72286;12.138;-68.936;2023-09-12T02:47:46;101146.37;;;29.58;74.70
82619;BME280;72286;12.138;-68.936;2023-09-12T02:51:28;101147.63;;;29.56;74.91
82619;BME280;72286;12.138;-68.936;2023-09-12T02:55:05;101150.85;;;29.47;75.43
82619;BME280;72286;12.138;-68.936;2023-09-12T02:58:46;101140.55;;;29.51;75.05
82619;BME280;72286;12.138;-68.936;2023-09-12T03:02:22;101133.73;;;29.52;74.76
82619;BME280;72286;12.138;-68.936;2023-09-12T03:06:01;101134.14;;;29.54;74.31
82619;BME280;72286;12.138;-68.936;2023-09-12T03:09:41;101120.08;;;29.53;74.40
82619;BME280;72286;12.138;-68.936;2023-09-12T03:13:19;101110.27;;;29.46;74.71
82619;BME280;72286;12.138;-68.936;2023-09-12T03:16:57;101103.55;;;29.52;74.33
82619;BME280;72286;12.138;-68.936;2023-09-12T03:20:38;101105.91;;;29.46;75.09
82619;BME280;72286;12.138;-68.936;2023-09-12T03:24:14;101109.04;;;29.40;75.53
82619;BME280;72286;12.138;-68.936;2023-09-12T03:28:14;101104.03;;;29.45;75.14
82619;BME280;72286;12.138;-68.936;2023-09-12T03:31:51;101103.05;;;29.44;75.20
82619;BME280;72286;12.138;-68.936;2023-09-12T03:35:10;101096.84;;;29.42;75.21
82619;BME280;72286;12.138;-68.936;2023-09-12T03:38:47;101096.20;;;29.33;75.63
82619;BME280;72286;12.138;-68.936;2023-09-12T03:42:45;101085.02;;;29.25;76.10
82619;BME280;72286;12.138;-68.936;2023-09-12T03:46:02;101076.96;;;29.30;75.64
82619;BME280;72286;12.138;-68.936;2023-09-12T03:49:40;101073.52;;;29.33;75.69
82619;BME280;72286;12.138;-68.936;2023-09-12T03:53:18;101077.83;;;29.37;75.46
82619;BME280;72286;12.138;-68.936;2023-09-12T03:57:16;101067.80;;;29.31;75.90
82619;BME280;72286;12.138;-68.936;2023-09-12T04:00:33;101072.08;;;29.26;76.00
82619;BME280;72286;12.138;-68.936;2023-09-12T04:04:11;101076.10;;;29.24;75.81
82619;BME280;72286;12.138;-68.936;2023-09-12T04:07:48;101073.53;;;29.22;76.09
82619;BME280;72286;12.138;-68.936;2023-09-12T04:11:27;101070.27;;;29.25;75.89
82619;BME280;72286;12.138;-68.936;2023-09-12T04:15:05;101065.85;;;29.24;75.61
82619;BME280;72286;12.138;-68.936;2023-09-12T04:19:08;101064.23;;;29.37;74.95
82619;BME280;72286;12.138;-68.936;2023-09-12T04:22:25;101066.27;;;29.34;75.40
82619;BME280;72286;12.138;-68.936;2023-09-12T04:26:03;101072.55;;;29.34;75.08
82619;BME280;72286;12.138;-68.936;2023-09-12T04:29:40;101076.17;;;29.39;74.99
82619;BME280;72286;12.138;-68.936;2023-09-12T04:33:19;101075.52;;;29.41;75.04
82619;BME280;72286;12.138;-68.936;2023-09-12T04:36:56;101069.38;;;29.28;75.49
82619;BME280;72286;12.138;-68.936;2023-09-12T04:40:34;101066.56;;;29.27;75.52
82619;BME280;72286;12.138;-68.936;2023-09-12T04:44:11;101059.86;;;29.28;75.64
82619;BME280;72286;12.138;-68.936;2023-09-12T04:47:49;101058.14;;;29.23;75.94
82619;BME280;72286;12.138;-68.936;2023-09-12T04:51:26;101053.89;;;29.19;75.96
82619;BME280;72286;12.138;-68.936;2023-09-12T04:55:05;101057.26;;;29.12;76.27
82619;BME280;72286;12.138;-68.936;2023-09-12T04:58:42;101059.29;;;29.17;75.87
82619;BME280;72286;12.138;-68.936;2023-09-12T05:02:20;101057.20;;;29.20;75.88
82619;BME280;72286;12.138;-68.936;2023-09-12T05:05:58;101055.73;;;29.17;75.82
82619;BME280;72286;12.138;-68.936;2023-09-12T05:09:36;101051.59;;;29.19;76.02
82619;BME280;72286;12.138;-68.936;2023-09-12T05:13:32;101043.98;;;29.27;75.49
82619;BME280;72286;12.138;-68.936;2023-09-12T05:16:51;101038.20;;;29.30;75.68
82619;BME280;72286;12.138;-68.936;2023-09-12T05:20:29;101037.54;;;29.26;75.88
82619;BME280;72286;12.138;-68.936;2023-09-12T05:24:07;101034.77;;;29.23;75.75
82619;BME280;72286;12.138;-68.936;2023-09-12T05:27:44;101026.20;;;29.23;75.64
82619;BME280;72286;12.138;-68.936;2023-09-12T05:31:22;101019.34;;;29.21;75.62
82619;BME280;72286;12.138;-68.936;2023-09-12T05:34:59;101016.55;;;29.28;75.18
82619;BME280;72286;12.138;-68.936;2023-09-12T05:38:38;101013.89;;;29.18;76.24
82619;BME280;72286;12.138;-68.936;2023-09-12T05:42:15;101008.64;;;29.19;76.04
82619;BME280;72286;12.138;-68.936;2023-09-12T05:45:56;100999.05;;;29.13;76.21
82619;BME280;72286;12.138;-68.936;2023-09-12T05:49:34;100997.93;;;29.16;75.92
82619;BME280;72286;12.138;-68.936;2023-09-12T05:53:12;101000.14;;;29.21;75.59
82619;BME280;72286;12.138;-68.936;2023-09-12T05:56:49;100997.12;;;29.15;75.80
82619;BME280;72286;12.138;-68.936;2023-09-12T06:00:27;100996.20;;;29.15;75.78
82619;BME280;72286;12.138;-68.936;2023-09-12T06:04:05;100993.70;;;29.19;75.58
82619;BME280;72286;12.138;-68.936;2023-09-12T06:07:43;100986.66;;;29.17;75.66
82619;BME280;72286;12.138;-68.936;2023-09-12T06:11:20;100980.91;;;29.11;75.79
82619;BME280;72286;12.138;-68.936;2023-09-12T06:14:59;100982.98;;;29.16;75.57
82619;BME280;72286;12.138;-68.936;2023-09-12T06:18:36;100982.52;;;29.23;75.29
82619;BME280;72286;12.138;-68.936;2023-09-12T06:22:14;100979.61;;;29.27;74.97
82619;BME280;72286;12.138;-68.936;2023-09-12T06:25:51;100986.52;;;29.29;74.82
82619;BME280;72286;12.138;-68.936;2023-09-12T06:29:29;100985.25;;;29.31;74.76
82619;BME280;72286;12.138;-68.936;2023-09-12T06:33:06;100986.50;;;29.35;74.67
82619;BME280;72286;12.138;-68.936;2023-09-12T06:36:45;100985.36;;;29.34;74.56
82619;BME280;72286;12.138;-68.936;2023-09-12T06:40:22;100988.48;;;29.35;74.43
82619;BME280;72286;12.138;-68.936;2023-09-12T06:44:00;100989.17;;;29.34;74.26
82619;BME280;72286;12.138;-68.936;2023-09-12T06:47:39;100987.49;;;29.29;74.33
82619;BME280;72286;12.138;-68.936;2023-09-12T06:51:17;100984.86;;;29.21;74.65
82619;BME280;72286;12.138;-68.936;2023-09-12T06:54:54;100975.79;;;29.20;74.87
82619;BME280;72286;12.138;-68.936;2023-09-12T06:58:33;100970.89;;;29.18;74.99
82619;BME280;72286;12.138;-68.936;2023-09-12T07:02:09;100966.13;;;29.17;74.87
82619;BME280;72286;12.138;-68.936;2023-09-12T07:05:49;100957.52;;;29.17;74.73
82619;BME280;72286;12.138;-68.936;2023-09-12T07:09:26;100950.58;;;29.22;74.77
82619;BME280;72286;12.138;-68.936;2023-09-12T07:13:05;100942.61;;;29.21;74.50
82619;BME280;72286;12.138;-68.936;2023-09-12T07:16:42;100947.09;;;29.24;74.48
82619;BME280;72286;12.138;-68.936;2023-09-12T07:20:20;100941.00;;;29.22;74.76
82619;BME280;72286;12.138;-68.936;2023-09-12T07:23:57;100941.84;;;29.17;74.79
82619;BME280;72286;12.138;-68.936;2023-09-12T07:27:35;100941.36;;;29.13;74.73
82619;BME280;72286;12.138;-68.936;2023-09-12T07:31:12;100944.58;;;29.12;74.83
82619;BME280;72286;12.138;-68.936;2023-09-12T07:34:51;100940.05;;;29.08;74.70
82619;BME280;72286;12.138;-68.936;2023-09-12T07:38:28;100938.77;;;29.07;74.84
82619;BME280;72286;12.138;-68.936;2023-09-12T07:42:08;100937.61;;;29.06;74.89
82619;BME280;72286;12.138;-68.936;2023-09-12T07:45:45;100930.90;;;29.04;74.76
82619;BME280;72286;12.138;-68.936;2023-09-12T07:49:22;100920.39;;;29.00;74.95
82619;BME280;72286;12.138;-68.936;2023-09-12T07:53:02;100916.48;;;28.99;74.84
82619;BME280;72286;12.138;-68.936;2023-09-12T07:56:40;100914.34;;;29.01;74.71
82619;BME280;72286;12.138;-68.936;2023-09-12T08:00:17;100922.04;;;29.00;74.79
82619;BME280;72286;12.138;-68.936;2023-09-12T08:03:55;100923.19;;;28.97;74.56
82619;BME280;72286;12.138;-68.936;2023-09-12T08:07:33;100920.15;;;28.97;74.92
82619;BME280;72286;12.138;-68.936;2023-09-12T08:11:11;100909.70;;;28.88;75.41
82619;BME280;72286;12.138;-68.936;2023-09-12T08:14:48;100910.31;;;28.84;75.23
82619;BME280;72286;12.138;-68.936;2023-09-12T08:18:29;100904.86;;;28.83;75.28
82619;BME280;72286;12.138;-68.936;2023-09-12T08:22:08;100906.05;;;28.80;75.45
82619;BME280;72286;12.138;-68.936;2023-09-12T08:25:46;100906.45;;;28.77;75.45
82619;BME280;72286;12.138;-68.936;2023-09-12T08:29:22;100911.02;;;28.80;75.14
82619;BME280;72286;12.138;-68.936;2023-09-12T08:33:01;100912.36;;;28.83;75.00
82619;BME280;72286;12.138;-68.936;2023-09-12T08:36:39;100914.40;;;28.84;75.00
82619;BME280;72286;12.138;-68.936;2023-09-12T08:40:18;100922.35;;;28.84;75.01
82619;BME280;72286;12.138;-68.936;2023-09-12T08:43:55;100914.96;;;28.78;75.33
82619;BME280;72286;12.138;-68.936;2023-09-12T08:47:34;100915.90;;;28.73;75.76
82619;BME280;72286;12.138;-68.936;2023-09-12T08:51:12;100918.09;;;28.67;76.07
82619;BME280;72286;12.138;-68.936;2023-09-12T08:54:50;100923.39;;;28.58;76.44
82619;BME280;72286;12.138;-68.936;2023-09-12T08:58:27;100921.57;;;28.60;76.19
82619;BME280;72286;12.138;-68.936;2023-09-12T09:02:07;100925.89;;;28.64;76.15
82619;BME280;72286;12.138;-68.936;2023-09-12T09:05:45;100922.26;;;28.65;76.08
82619;BME280;72286;12.138;-68.936;2023-09-12T09:09:26;100926.72;;;28.63;76.04
82619;BME280;72286;12.138;-68.936;2023-09-12T09:13:04;100923.02;;;28.69;75.89
82619;BME280;72286;12.138;-68.936;2023-09-12T09:16:43;100929.54;;;28.75;75.52
82619;BME280;72286;12.138;-68.936;2023-09-12T09:20:27;100928.23;;;28.70;75.82
82619;BME280;72286;12.138;-68.936;2023-09-12T09:24:09;100924.98;;;28.66;75.89
82619;BME280;72286;12.138;-68.936;2023-09-12T09:27:46;100919.59;;;28.70;75.70
82619;BME280;72286;12.138;-68.936;2023-09-12T09:31:24;100921.27;;;28.73;75.38
82619;BME280;72286;12.138;-68.936;2023-09-12T09:35:03;100926.70;;;28.76;75.20
82619;BME280;72286;12.138;-68.936;2023-09-12T09:38:41;100935.09;;;28.75;75.05
82619;BME280;72286;12.138;-68.936;2023-09-12T09:42:17;100936.09;;;28.76;74.89
82619;BME280;72286;12.138;-68.936;2023-09-12T09:45:56;100939.38;;;28.75;74.92
82619;BME280;72286;12.138;-68.936;2023-09-12T09:49:33;100930.89;;;28.70;75.08
82619;BME280;72286;12.138;-68.936;2023-09-12T09:53:11;100926.34;;;28.65;74.98
82619;BME280;72286;12.138;-68.936;2023-09-12T09:56:50;100931.13;;;28.64;75.00
82619;BME280;72286;12.138;-68.936;2023-09-12T10:00:32;100939.59;;;28.66;74.78
82619;BME280;72286;12.138;-68.936;2023-09-12T10:04:32;100945.55;;;28.65;74.56
82619;BME280;72286;12.138;-68.936;2023-09-12T10:07:53;100948.81;;;28.67;74.67
82619;BME280;72286;12.138;-68.936;2023-09-12T10:11:29;100953.54;;;28.70;74.54
82619;BME280;72286;12.138;-68.936;2023-09-12T10:15:10;100953.62;;;28.69;74.33
82619;BME280;72286;12.138;-68.936;2023-09-12T10:22:57;100966.30;;;28.70;74.11
82619;BME280;72286;12.138;-68.936;2023-09-12T10:26:34;100972.41;;;28.68;74.11
82619;BME280;72286;12.138;-68.936;2023-09-12T10:30:15;100975.34;;;28.64;74.04
82619;BME280;72286;12.138;-68.936;2023-09-12T10:33:49;100979.52;;;28.63;74.17
82619;BME280;72286;12.138;-68.936;2023-09-12T10:37:29;100982.67;;;28.62;74.37
82619;BME280;72286;12.138;-68.936;2023-09-12T10:41:12;100982.01;;;28.62;74.25
82619;BME280;72286;12.138;-68.936;2023-09-12T10:44:52;100983.73;;;28.64;74.31
82619;BME280;72286;12.138;-68.936;2023-09-12T10:48:32;100991.04;;;28.66;74.28
82619;BME280;72286;12.138;-68.936;2023-09-12T10:52:09;100999.86;;;28.68;74.25
82619;BME280;72286;12.138;-68.936;2023-09-12T11:03:46;101017.27;;;28.78;74.07
82619;BME280;72286;12.138;-68.936;2023-09-12T11:11:20;101033.34;;;28.86;74.03
82619;BME280;72286;12.138;-68.936;2023-09-12T11:15:04;101039.37;;;28.91;74.03
82619;BME280;72286;12.138;-68.936;2023-09-12T11:22:53;101040.88;;;29.12;73.47
82619;BME280;72286;12.138;-68.936;2023-09-12T11:26:30;101044.63;;;29.40;72.72
82619;BME280;72286;12.138;-68.936;2023-09-12T11:30:09;101045.99;;;29.67;71.89
82619;BME280;72286;12.138;-68.936;2023-09-12T11:33:46;101055.09;;;29.91;71.12
82619;BME280;72286;12.138;-68.936;2023-09-12T11:37:26;101059.87;;;30.13;70.54
82619;BME280;72286;12.138;-68.936;2023-09-12T11:41:03;101066.48;;;30.31;69.66
82619;BME280;72286;12.138;-68.936;2023-09-12T11:44:41;101065.52;;;30.47;68.98
82619;BME280;72286;12.138;-68.936;2023-09-12T11:48:21;101060.64;;;30.61;67.95
82619;BME280;72286;12.138;-68.936;2023-09-12T11:51:59;101063.52;;;30.84;67.37
82619;BME280;72286;12.138;-68.936;2023-09-12T11:55:59;101072.98;;;30.83;67.13
82619;BME280;72286;12.138;-68.936;2023-09-12T11:59:14;101077.30;;;31.04;66.36
82619;BME280;72286;12.138;-68.936;2023-09-12T12:02:52;101079.45;;;31.09;65.23
82619;BME280;72286;12.138;-68.936;2023-09-12T12:06:30;101087.94;;;31.08;65.18
82619;BME280;72286;12.138;-68.936;2023-09-12T12:10:07;101094.21;;;31.16;64.53
82619;BME280;72286;12.138;-68.936;2023-09-12T12:13:45;101114.52;;;31.22;63.57
82619;BME280;72286;12.138;-68.936;2023-09-12T12:17:22;101110.21;;;31.34;62.81
82619;BME280;72286;12.138;-68.936;2023-09-12T12:21:01;101120.13;;;31.46;62.75
82619;BME280;72286;12.138;-68.936;2023-09-12T12:24:42;101126.35;;;31.60;62.07
82619;BME280;72286;12.138;-68.936;2023-09-12T12:28:20;101129.70;;;31.67;61.19
82619;BME280;72286;12.138;-68.936;2023-09-12T12:32:02;101126.66;;;31.71;61.47
82619;BME280;72286;12.138;-68.936;2023-09-12T12:35:42;101126.38;;;31.87;61.08
82619;BME280;72286;12.138;-68.936;2023-09-12T12:39:18;101131.48;;;31.98;60.54
82619;BME280;72286;12.138;-68.936;2023-09-12T12:42:57;101126.12;;;32.16;60.89
82619;BME280;72286;12.138;-68.936;2023-09-12T12:46:34;101132.05;;;32.26;60.32
82619;BME280;72286;12.138;-68.936;2023-09-12T12:50:24;101137.54;;;32.40;59.74
82619;BME280;72286;12.138;-68.936;2023-09-12T12:54:04;101142.22;;;32.39;59.56
82619;BME280;72286;12.138;-68.936;2023-09-12T12:57:43;101142.13;;;32.41;59.54
82619;BME280;72286;12.138;-68.936;2023-09-12T13:01:21;101145.35;;;32.45;60.48
82619;BME280;72286;12.138;-68.936;2023-09-12T13:04:59;101154.51;;;32.50;60.32
82619;BME280;72286;12.138;-68.936;2023-09-12T13:08:35;101159.73;;;32.65;59.89
82619;BME280;72286;12.138;-68.936;2023-09-12T13:12:14;101155.96;;;32.87;58.92
82619;BME280;72286;12.138;-68.936;2023-09-12T13:15:52;101159.41;;;32.97;58.59
82619;BME280;72286;12.138;-68.936;2023-09-12T13:19:30;101158.39;;;32.96;58.71
82619;BME280;72286;12.138;-68.936;2023-09-12T13:23:07;101166.30;;;32.94;58.11
82619;BME280;72286;12.138;-68.936;2023-09-12T13:26:45;101171.56;;;32.79;58.44
82619;BME280;72286;12.138;-68.936;2023-09-12T13:30:23;101172.61;;;32.84;58.20
82619;BME280;72286;12.138;-68.936;2023-09-12T13:34:01;101171.16;;;32.94;58.03
82619;BME280;72286;12.138;-68.936;2023-09-12T13:37:39;101167.20;;;33.07;57.27
82619;BME280;72286;12.138;-68.936;2023-09-12T13:41:17;101165.59;;;33.21;56.42
82619;BME280;72286;12.138;-68.936;2023-09-12T13:44:54;101162.92;;;33.28;56.62
82619;BME280;72286;12.138;-68.936;2023-09-12T13:48:33;101165.86;;;33.37;56.32
82619;BME280;72286;12.138;-68.936;2023-09-12T13:52:11;101162.50;;;33.50;55.48
82619;BME280;72286;12.138;-68.936;2023-09-12T13:55:49;101165.42;;;33.56;55.33
82619;BME280;72286;12.138;-68.936;2023-09-12T13:59:26;101168.09;;;33.60;55.42
82619;BME280;72286;12.138;-68.936;2023-09-12T14:03:04;101171.95;;;33.62;54.82
82619;BME280;72286;12.138;-68.936;2023-09-12T14:06:41;101175.70;;;33.67;54.44
82619;BME280;72286;12.138;-68.936;2023-09-12T14:10:19;101169.65;;;33.73;54.30
82619;BME280;72286;12.138;-68.936;2023-09-12T14:13:56;101167.70;;;33.78;54.17
82619;BME280;72286;12.138;-68.936;2023-09-12T14:17:35;101170.30;;;33.86;53.96
82619;BME280;72286;12.138;-68.936;2023-09-12T14:21:12;101165.23;;;33.95;53.71
82619;BME280;72286;12.138;-68.936;2023-09-12T14:24:50;101167.25;;;33.99;53.43
82619;BME280;72286;12.138;-68.936;2023-09-12T14:28:47;101160.29;;;34.05;52.30
82619;BME280;72286;12.138;-68.936;2023-09-12T14:32:06;101153.75;;;34.12;52.34
82619;BME280;72286;12.138;-68.936;2023-09-12T14:36:03;101154.67;;;34.20;52.37
82619;BME280;72286;12.138;-68.936;2023-09-12T14:39:24;101152.64;;;34.22;51.85
82619;BME280;72286;12.138;-68.936;2023-09-12T14:43:01;101149.20;;;34.22;51.51
82619;BME280;72286;12.138;-68.936;2023-09-12T14:46:39;101143.95;;;34.29;51.91
82619;BME280;72286;12.138;-68.936;2023-09-12T14:50:16;101138.27;;;34.37;51.64
82619;BME280;72286;12.138;-68.936;2023-09-12T14:54:14;101135.25;;;34.44;51.15
82619;BME280;72286;12.138;-68.936;2023-09-12T14:57:32;101137.02;;;34.52;49.42
82619;BME280;72286;12.138;-68.936;2023-09-12T15:01:10;101131.02;;;34.58;48.50
82619;BME280;72286;12.138;-68.936;2023-09-12T15:04:47;101126.46;;;34.57;48.15
82619;BME280;72286;12.138;-68.936;2023-09-12T15:08:25;101126.31;;;34.63;47.80
82619;BME280;72286;12.138;-68.936;2023-09-12T15:12:03;101116.19;;;34.65;48.00
82619;BME280;72286;12.138;-68.936;2023-09-12T15:15:41;101112.20;;;34.70;48.29
82619;BME280;72286;12.138;-68.936;2023-09-12T15:19:18;101109.71;;;34.76;48.00
82619;BME280;72286;12.138;-68.936;2023-09-12T15:22:56;101095.36;;;34.84;47.71
82619;BME280;72286;12.138;-68.936;2023-09-12T15:26:33;101091.67;;;34.90;47.81
82619;BME280;72286;12.138;-68.936;2023-09-12T15:30:12;101091.93;;;34.95;48.04
82619;BME280;72286;12.138;-68.936;2023-09-12T15:33:48;101092.70;;;35.02;47.55
82619;BME280;72286;12.138;-68.936;2023-09-12T15:37:27;101090.86;;;34.97;45.53
82619;BME280;72286;12.138;-68.936;2023-09-12T15:41:04;101082.10;;;34.91;47.40
82619;BME280;72286;12.138;-68.936;2023-09-12T15:44:44;101074.14;;;34.88;48.65
82619;BME280;72286;12.138;-68.936;2023-09-12T15:48:21;101069.46;;;34.89;49.00
82619;BME280;72286;12.138;-68.936;2023-09-12T15:52:00;101071.02;;;34.63;49.07
82619;BME280;72286;12.138;-68.936;2023-09-12T15:55:37;101058.48;;;34.67;49.34
82619;BME280;72286;12.138;-68.936;2023-09-12T15:59:15;101053.52;;;34.62;49.89
82619;BME280;72286;12.138;-68.936;2023-09-12T16:02:52;101046.27;;;34.54;50.19
82619;BME280;72286;12.138;-68.936;2023-09-12T16:06:31;101040.66;;;34.50;50.13
82619;BME280;72286;12.138;-68.936;2023-09-12T16:10:08;101038.38;;;34.55;50.32
82619;BME280;72286;12.138;-68.936;2023-09-12T16:13:48;101028.95;;;34.31;50.66
82619;BME280;72286;12.138;-68.936;2023-09-12T16:17:29;101020.77;;;34.33;50.60
82619;BME280;72286;12.138;-68.936;2023-09-12T16:21:10;101019.15;;;34.36;50.03
82619;BME280;72286;12.138;-68.936;2023-09-12T16:24:46;101013.02;;;34.28;50.21
82619;BME280;72286;12.138;-68.936;2023-09-12T16:28:25;101002.58;;;34.33;50.14
82619;BME280;72286;12.138;-68.936;2023-09-12T16:32:02;100993.30;;;34.38;49.47
82619;BME280;72286;12.138;-68.936;2023-09-12T16:35:45;100977.73;;;34.39;49.24
82619;BME280;72286;12.138;-68.936;2023-09-12T16:39:17;100966.38;;;34.36;49.42
82619;BME280;72286;12.138;-68.936;2023-09-12T16:42:55;100950.73;;;34.11;50.11
82619;BME280;72286;12.138;-68.936;2023-09-12T16:46:33;100936.91;;;34.02;51.44
82619;BME280;72286;12.138;-68.936;2023-09-12T16:50:11;100927.70;;;34.20;51.13
82619;BME280;72286;12.138;-68.936;2023-09-12T16:53:50;100915.79;;;34.34;50.37
82619;BME280;72286;12.138;-68.936;2023-09-12T16:57:28;100913.85;;;34.41;49.91
82619;BME280;72286;12.138;-68.936;2023-09-12T17:01:05;100901.60;;;34.23;50.86
82619;BME280;72286;12.138;-68.936;2023-09-12T17:04:44;100897.58;;;34.34;51.09
82619;BME280;72286;12.138;-68.936;2023-09-12T17:08:21;100890.61;;;34.27;50.66
82619;BME280;72286;12.138;-68.936;2023-09-12T17:11:59;100884.81;;;34.20;50.36
82619;BME280;72286;12.138;-68.936;2023-09-12T17:15:37;100876.41;;;34.31;50.74
82619;BME280;72286;12.138;-68.936;2023-09-12T17:19:14;100872.84;;;34.48;50.33
82619;BME280;72286;12.138;-68.936;2023-09-12T17:22:51;100869.18;;;34.65;49.70
82619;BME280;72286;12.138;-68.936;2023-09-12T17:26:30;100863.16;;;34.79;48.25
82619;BME280;72286;12.138;-68.936;2023-09-12T17:30:07;100849.98;;;35.00;48.52
82619;BME280;72286;12.138;-68.936;2023-09-12T17:33:47;100840.38;;;35.14;47.82
82619;BME280;72286;12.138;-68.936;2023-09-12T17:37:24;100837.79;;;35.06;47.19
82619;BME280;72286;12.138;-68.936;2023-09-12T17:41:02;100823.53;;;35.07;46.35
82619;BME280;72286;12.138;-68.936;2023-09-12T17:44:39;100816.41;;;35.06;45.82
82619;BME280;72286;12.138;-68.936;2023-09-12T17:48:17;100807.85;;;35.17;44.54
82619;BME280;72286;12.138;-68.936;2023-09-12T17:51:54;100793.80;;;35.15;44.65
82619;BME280;72286;12.138;-68.936;2023-09-12T17:55:33;100789.63;;;35.21;42.93
82619;BME280;72286;12.138;-68.936;2023-09-12T17:59:10;100789.33;;;35.20;40.78
82619;BME280;72286;12.138;-68.936;2023-09-12T18:02:48;100784.50;;;35.20;40.23
82619;BME280;72286;12.138;-68.936;2023-09-12T18:06:25;100778.27;;;35.33;39.16
82619;BME280;72286;12.138;-68.936;2023-09-12T18:10:06;100770.75;;;35.37;37.38
82619;BME280;72286;12.138;-68.936;2023-09-12T18:13:43;100768.81;;;35.50;37.94
82619;BME280;72286;12.138;-68.936;2023-09-12T18:17:23;100764.13;;;35.63;37.73
82619;BME280;72286;12.138;-68.936;2023-09-12T18:21:00;100759.45;;;35.66;39.48
82619;BME280;72286;12.138;-68.936;2023-09-12T18:24:38;100754.02;;;35.69;40.80
82619;BME280;72286;12.138;-68.936;2023-09-12T18:28:39;100746.43;;;35.61;41.31
82619;BME280;72286;12.138;-68.936;2023-09-12T18:32:17;100740.55;;;35.55;40.42
82619;BME280;72286;12.138;-68.936;2023-09-12T18:35:54;100744.32;;;35.61;41.11
82619;BME280;72286;12.138;-68.936;2023-09-12T18:39:32;100741.77;;;35.68;43.68
82619;BME280;72286;12.138;-68.936;2023-09-12T18:43:09;100740.30;;;35.66;45.69
82619;BME280;72286;12.138;-68.936;2023-09-12T18:46:47;100741.91;;;35.54;45.54
82619;BME280;72286;12.138;-68.936;2023-09-12T18:50:24;100732.40;;;35.50;45.04
82619;BME280;72286;12.138;-68.936;2023-09-12T18:54:03;100720.70;;;35.57;44.92